Time;durP1;ratioP1;P1;durP2;ratioP2;P2;SDS_P1;SDS_P2;PMS_P1;PMS_P2;Temp;Humidity;BMP_temperature;BMP_pressure;BME280_temperature;BME280_humidity;BME280_pressure;Samples;Min_cycle;Max_cycle;Signal;HPM_P1;HPM_P2
2022/02/12 00:01:16;;;;;;;20.08;10.35;;;;;;;;;;10346999;28;20357;-58
2022/02/12 00:06:17;;;;;;;17.65;11.13;;;;;;;;;;10369207;28;20036;-58
2022/02/12 00:11:18;;;;;;;17.00;10.77;;;;;;;;;;10368916;28;20084;-58
2022/02/12 00:16:18;;;;;;;22.85;10.93;;;;;;;;;;10368883;28;20527;-58
2022/02/12 00:21:19;;;;;;;17.97;10.90;;;;;;;;;;10346301;28;20078;-58
2022/02/12 00:26:22;;;;;;;21.60;11.03;;;;;;;;;;10365753;28;20466;-56
2022/02/12 00:31:22;;;;;;;16.25;10.68;;;;;;;;;;10368339;28;20112;-58
2022/02/12 00:36:23;;;;;;;20.08;11.15;;;;;;;;;;10367795;28;20032;-58
2022/02/12 00:41:23;;;;;;;20.07;10.23;;;;;;;;;;10328632;28;20370;-58
2022/02/12 00:46:24;;;;;;;19.47;11.03;;;;;;;;;;10356613;28;20505;-58
2022/02/12 00:51:25;;;;;;;18.67;11.00;;;;;;;;;;10362972;28;20121;-57
2022/02/12 00:56:26;;;;;;;18.85;11.35;;;;;;;;;;10376413;28;20072;-56
2022/02/12 01:01:26;;;;;;;16.80;9.97;;;;;;;;;;10362981;28;20461;-58
2022/02/12 01:06:27;;;;;;;19.48;11.15;;;;;;;;;;10364862;28;20482;-58
2022/02/12 01:11:27;;;;;;;16.98;10.95;;;;;;;;;;10353484;28;20030;-58
2022/02/12 01:16:28;;;;;;;17.27;9.70;;;;;;;;;;10365417;28;20041;-58
2022/02/12 01:21:28;;;;;;;15.88;10.23;;;;;;;;;;10362139;28;20223;-58
2022/02/12 01:26:29;;;;;;;17.53;9.97;;;;;;;;;;10362561;28;20503;-58
2022/02/12 01:31:29;;;;;;;24.90;9.77;;;;;;;;;;10362275;28;20505;-59
2022/02/12 01:36:30;;;;;;;14.48;9.45;;;;;;;;;;10357063;28;20105;-58
2022/02/12 01:41:30;;;;;;;13.55;9.13;;;;;;;;;;10365045;28;20037;-58
2022/02/12 01:46:30;;;;;;;12.33;9.17;;;;;;;;;;10358926;28;20034;-58
2022/02/12 01:51:32;;;;;;;16.97;9.63;;;;;;;;;;10366526;28;20469;-58
2022/02/12 01:56:32;;;;;;;13.02;8.65;;;;;;;;;;10367130;28;20030;-58
2022/02/12 02:01:33;;;;;;;12.63;8.57;;;;;;;;;;10361945;28;20026;-58
2022/02/12 02:06:33;;;;;;;14.57;8.57;;;;;;;;;;10374001;28;20385;-59
2022/02/12 02:11:33;;;;;;;12.73;8.13;;;;;;;;;;10374010;28;20491;-58
2022/02/12 02:16:34;;;;;;;14.03;8.40;;;;;;;;;;10371188;28;20467;-58
2022/02/12 02:21:35;;;;;;;13.13;7.93;;;;;;;;;;10359727;28;20104;-58
2022/02/12 02:26:37;;;;;;;15.55;8.68;;;;;;;;;;10373436;28;20459;-58
2022/02/12 02:31:37;;;;;;;13.20;8.77;;;;;;;;;;10350118;28;20034;-58
2022/02/12 02:36:38;;;;;;;9.88;7.30;;;;;;;;;;10371910;28;20061;-58
2022/02/12 02:41:39;;;;;;;11.57;7.38;;;;;;;;;;10373169;28;20061;-58
2022/02/12 02:46:39;;;;;;;10.13;7.23;;;;;;;;;;10372598;28;20133;-58
2022/02/12 02:56:58;;;;;;;;;;;;;;;;;;10372360;28;20501;-58
2022/02/12 03:01:58;;;;;;;11.95;6.82;;;;;;;;;;10372147;28;19942;-58
2022/02/12 03:06:59;;;;;;;10.73;6.93;;;;;;;;;;10371012;28;20030;-58
2022/02/12 03:11:59;;;;;;;10.90;6.60;;;;;;;;;;10371975;28;20483;-58
2022/02/12 03:17:00;;;;;;;10.10;6.53;;;;;;;;;;10371435;28;20471;-58
2022/02/12 03:22:00;;;;;;;10.98;6.43;;;;;;;;;;10371076;28;20459;-58
2022/02/12 03:27:01;;;;;;;10.07;6.63;;;;;;;;;;10370566;28;20080;-58
2022/02/12 03:32:01;;;;;;;8.80;5.70;;;;;;;;;;10371728;28;20583;-58
2022/02/12 03:37:02;;;;;;;8.40;6.03;;;;;;;;;;10370530;28;20026;-58
2022/02/12 03:42:02;;;;;;;10.00;6.32;;;;;;;;;;10370658;28;20026;-58
2022/02/12 03:47:03;;;;;;;9.40;6.25;;;;;;;;;;10358293;28;20390;-58
2022/02/12 03:52:03;;;;;;;8.90;5.40;;;;;;;;;;10369901;28;20030;-58
2022/02/12 03:57:04;;;;;;;9.65;5.63;;;;;;;;;;10369628;28;20113;-58
2022/02/12 04:02:04;;;;;;;8.25;5.63;;;;;;;;;;10370479;28;20480;-57
2022/02/12 04:07:05;;;;;;;6.93;5.18;;;;;;;;;;10368927;28;20068;-58
2022/02/12 04:12:06;;;;;;;8.23;5.35;;;;;;;;;;10369144;28;20042;-59
2022/02/12 04:17:06;;;;;;;9.00;5.70;;;;;;;;;;10369185;28;20457;-58
2022/02/12 04:22:07;;;;;;;8.88;5.78;;;;;;;;;;10368607;28;20196;-58
2022/02/12 04:27:07;;;;;;;7.57;5.33;;;;;;;;;;10368789;28;20092;-58
2022/02/12 04:32:07;;;;;;;6.40;4.70;;;;;;;;;;10368708;28;20463;-58
2022/02/12 04:37:08;;;;;;;7.72;5.20;;;;;;;;;;10368013;28;20459;-58
2022/02/12 04:42:11;;;;;;;7.72;4.97;;;;;;;;;;10368607;28;20061;-58
2022/02/12 04:47:12;;;;;;;9.38;4.80;;;;;;;;;;10368164;28;20088;-58
2022/02/12 04:52:14;;;;;;;9.65;4.75;;;;;;;;;;10367852;28;20038;-58
2022/02/12 04:57:15;;;;;;;7.40;4.65;;;;;;;;;;10368006;28;20033;-58
2022/02/12 05:02:16;;;;;;;5.65;4.28;;;;;;;;;;10367575;28;20496;-57
2022/02/12 05:07:16;;;;;;;7.57;5.27;;;;;;;;;;10368042;28;20034;-58
2022/02/12 05:12:16;;;;;;;7.00;4.70;;;;;;;;;;10367958;28;20556;-58
2022/02/12 05:17:17;;;;;;;5.57;4.43;;;;;;;;;;10350487;28;21232;-59
2022/02/12 05:22:18;;;;;;;6.43;4.70;;;;;;;;;;10367512;28;20509;-58
2022/02/12 05:27:19;;;;;;;5.72;4.63;;;;;;;;;;10368038;28;20524;-57
2022/02/12 05:32:19;;;;;;;6.63;4.72;;;;;;;;;;10373971;28;20034;-57
2022/02/12 05:37:20;;;;;;;6.10;4.63;;;;;;;;;;10375426;28;20033;-57
2022/02/12 05:42:20;;;;;;;5.93;4.70;;;;;;;;;;10375088;28;20033;-58
2022/02/12 05:47:20;;;;;;;6.97;4.67;;;;;;;;;;10374841;28;20029;-58
2022/02/12 05:52:21;;;;;;;7.47;4.18;;;;;;;;;;10374141;28;20030;-58
2022/02/12 05:57:21;;;;;;;7.27;5.07;;;;;;;;;;10372587;28;20044;-58
2022/02/12 06:02:22;;;;;;;5.00;4.20;;;;;;;;;;10373894;28;20530;-59
2022/02/12 06:07:22;;;;;;;5.55;4.00;;;;;;;;;;10374418;28;20109;-58
2022/02/12 06:12:22;;;;;;;7.10;4.40;;;;;;;;;;10370768;28;20076;-59
2022/02/12 06:17:23;;;;;;;6.47;4.43;;;;;;;;;;10358915;28;20490;-68
2022/02/12 06:22:26;;;;;;;5.38;3.85;;;;;;;;;;10371165;28;20505;-68
2022/02/12 06:27:26;;;;;;;6.35;4.68;;;;;;;;;;10371388;28;20400;-69
2022/02/12 06:32:27;;;;;;;6.40;3.95;;;;;;;;;;10368885;28;20037;-65
2022/02/12 06:37:28;;;;;;;3.95;3.50;;;;;;;;;;10381081;28;20021;-67
2022/02/12 06:42:29;;;;;;;7.60;4.25;;;;;;;;;;10386790;28;20042;-68
2022/02/12 06:47:29;;;;;;;5.13;3.77;;;;;;;;;;10352449;28;20393;-66
2022/02/12 06:52:30;;;;;;;7.03;4.17;;;;;;;;;;10371854;28;20471;-67
2022/02/12 06:57:30;;;;;;;5.53;3.92;;;;;;;;;;10368389;28;20026;-67
2022/02/12 07:02:31;;;;;;;4.90;3.63;;;;;;;;;;10368955;28;20034;-65
2022/02/12 07:07:31;;;;;;;11.17;3.77;;;;;;;;;;10371659;28;20498;-66
2022/02/12 07:12:32;;;;;;;12.40;3.60;;;;;;;;;;10357234;28;20029;-65
2022/02/12 07:17:37;;;;;;;5.13;3.03;;;;;;;;;;10347481;28;20460;-66
2022/02/12 07:22:40;;;;;;;7.35;3.85;;;;;;;;;;10368683;28;20088;-67
2022/02/12 07:27:41;;;;;;;10.10;4.32;;;;;;;;;;10370865;28;20061;-62
2022/02/12 07:32:42;;;;;;;9.77;4.10;;;;;;;;;;10370452;28;20052;-60
2022/02/12 07:37:47;;;;;;;13.20;4.68;;;;;;;;;;10368781;28;20026;-62
2022/02/12 07:42:47;;;;;;;12.55;5.70;;;;;;;;;;10367231;28;20121;-60
2022/02/12 07:47:49;;;;;;;10.07;5.05;;;;;;;;;;10366575;28;20034;-59
2022/02/12 07:52:51;;;;;;;17.15;5.57;;;;;;;;;;10360327;28;20264;-57
2022/02/12 07:57:52;;;;;;;13.15;5.35;;;;;;;;;;10369607;28;20034;-66
2022/02/12 08:02:54;;;;;;;20.50;5.23;;;;;;;;;;10368383;28;20030;-59
2022/02/12 08:07:55;;;;;;;23.60;5.55;;;;;;;;;;10357523;28;20862;-59
2022/02/12 08:12:55;;;;;;;19.38;5.28;;;;;;;;;;10328870;28;20081;-63
2022/02/12 08:17:57;;;;;;;13.98;5.43;;;;;;;;;;10346497;28;20473;-59
2022/02/12 08:22:57;;;;;;;19.45;4.78;;;;;;;;;;10342805;23;20405;-65
2022/02/12 08:27:57;;;;;;;23.90;5.28;;;;;;;;;;10324202;28;20044;-65
2022/02/12 08:32:58;;;;;;;15.33;5.03;;;;;;;;;;10328386;28;20022;-64
2022/02/12 08:37:58;;;;;;;26.27;5.77;;;;;;;;;;10327338;28;20474;-64
2022/02/12 08:42:59;;;;;;;35.75;6.85;;;;;;;;;;10327754;28;20495;-65
2022/02/12 08:47:59;;;;;;;51.15;6.43;;;;;;;;;;10327547;28;20097;-65
2022/02/12 08:53:00;;;;;;;54.95;6.78;;;;;;;;;;10327604;28;20026;-64
2022/02/12 08:58:00;;;;;;;32.45;5.60;;;;;;;;;;10327630;28;20480;-64
2022/02/12 09:03:01;;;;;;;18.70;5.63;;;;;;;;;;10327071;28;20109;-64
2022/02/12 09:08:01;;;;;;;21.60;5.85;;;;;;;;;;10326727;28;20499;-64
2022/02/12 09:13:02;;;;;;;16.90;5.18;;;;;;;;;;10327376;28;20033;-64
2022/02/12 09:18:02;;;;;;;17.17;5.05;;;;;;;;;;10326952;28;20048;-64
2022/02/12 09:23:03;;;;;;;17.35;5.22;;;;;;;;;;10326385;28;20409;-64
2022/02/12 09:28:03;;;;;;;24.03;4.87;;;;;;;;;;10327113;28;20114;-64
2022/02/12 09:33:04;;;;;;;14.90;4.47;;;;;;;;;;10326905;28;20538;-64
2022/02/12 09:38:04;;;;;;;10.07;4.97;;;;;;;;;;10327191;28;20355;-63
2022/02/12 09:43:04;;;;;;;13.37;4.60;;;;;;;;;;10326810;28;20117;-64
2022/02/12 09:48:09;;;;;;;16.03;4.80;;;;;;;;;;10326660;28;20507;-64
2022/02/12 09:53:09;;;;;;;9.32;4.22;;;;;;;;;;10324974;28;20398;-64
2022/02/12 09:58:14;;;;;;;9.38;4.32;;;;;;;;;;10326596;28;20030;-64
2022/02/12 10:03:14;;;;;;;18.02;4.68;;;;;;;;;;10325999;28;20402;-64
2022/02/12 10:08:15;;;;;;;15.40;4.10;;;;;;;;;;10325872;28;20037;-64
2022/02/12 10:13:16;;;;;;;13.95;4.10;;;;;;;;;;10325663;28;21006;-65
2022/02/12 10:18:30;;;;;;;15.05;3.58;;;;;;;;;;10325676;28;20030;-65
2022/02/12 10:23:32;;;;;;;13.07;3.75;;;;;;;;;;10331622;28;20051;-65
2022/02/12 10:28:35;;;;;;;16.77;3.72;;;;;;;;;;10332924;28;20053;-65
2022/02/12 10:33:45;;;;;;;17.17;3.25;;;;;;;;;;10332937;28;20054;-65
2022/02/12 10:38:51;;;;;;;11.75;3.38;;;;;;;;;;10332053;28;20030;-65
2022/02/12 10:43:55;;;;;;;15.48;3.90;;;;;;;;;;10332446;28;20351;-65
2022/02/12 10:48:55;;;;;;;12.43;3.50;;;;;;;;;;10331765;28;20374;-65
2022/02/12 10:53:55;;;;;;;13.18;3.72;;;;;;;;;;10331532;28;20035;-65
2022/02/12 10:58:56;;;;;;;7.28;3.22;;;;;;;;;;10331908;28;20026;-65
2022/02/12 11:03:56;;;;;;;11.13;2.90;;;;;;;;;;10331301;28;20101;-65
2022/02/12 11:08:57;;;;;;;7.27;2.87;;;;;;;;;;10330046;28;20038;-65
2022/02/12 11:13:58;;;;;;;6.43;2.38;;;;;;;;;;10313466;28;20026;-65
2022/02/12 11:18:59;;;;;;;16.58;2.97;;;;;;;;;;10329847;28;20532;-64
2022/02/12 11:24:06;;;;;;;9.90;2.53;;;;;;;;;;10329220;28;20101;-65
2022/02/12 11:29:28;;;;;;;9.48;2.83;;;;;;;;;;10329083;28;20509;-65
2022/02/12 11:34:29;;;;;;;5.05;2.47;;;;;;;;;;10329962;28;20030;-65
2022/02/12 11:39:29;;;;;;;11.87;2.90;;;;;;;;;;10329322;28;20041;-65
2022/02/12 11:44:48;;;;;;;9.73;3.17;;;;;;;;;;10326997;28;20397;-65
2022/02/12 11:49:49;;;;;;;14.13;2.75;;;;;;;;;;10328753;28;20462;-65
2022/02/12 11:54:57;;;;;;;7.13;2.40;;;;;;;;;;10344475;28;20110;-65
2022/02/12 12:00:00;;;;;;;11.07;2.50;;;;;;;;;;10327814;28;20262;-65
2022/02/12 12:05:15;;;;;;;6.70;3.00;;;;;;;;;;10325216;28;20042;-65
2022/02/12 12:10:16;;;;;;;8.43;2.50;;;;;;;;;;10325695;28;20030;-65
2022/02/12 12:15:20;;;;;;;5.23;2.50;;;;;;;;;;10327790;28;20378;-64
2022/02/12 12:20:21;;;;;;;4.60;2.17;;;;;;;;;;10324511;28;20823;-64
2022/02/12 12:25:24;;;;;;;8.40;2.53;;;;;;;;;;10321184;28;20594;-64
2022/02/12 12:35:54;;;;;;;6.15;2.50;;;;;;;;;;10308861;28;20175;-64
2022/02/12 12:40:54;;;;;;;4.10;2.45;;;;;;;;;;10311924;28;20025;-65
2022/02/12 12:45:55;;;;;;;8.73;2.60;;;;;;;;;;10319800;28;20461;-63
2022/02/12 12:50:55;;;;;;;6.00;2.58;;;;;;;;;;10324722;28;20034;-63
2022/02/12 12:55:57;;;;;;;5.93;2.03;;;;;;;;;;10314878;28;20064;-63
2022/02/12 13:01:10;;;;;;;6.43;2.20;;;;;;;;;;10326790;28;21079;-64
2022/02/12 13:06:11;;;;;;;8.02;2.10;;;;;;;;;;10327790;28;20028;-64
2022/02/12 13:11:26;;;;;;;6.22;2.13;;;;;;;;;;10327090;28;20375;-63
2022/02/12 13:16:26;;;;;;;5.22;2.05;;;;;;;;;;10325995;28;20109;-63
2022/02/12 13:21:29;;;;;;;4.93;1.80;;;;;;;;;;10303906;28;20471;-64
2022/02/12 13:26:30;;;;;;;5.20;1.83;;;;;;;;;;10326592;28;20034;-64
2022/02/12 13:31:30;;;;;;;5.95;2.10;;;;;;;;;;10322594;28;20041;-64
2022/02/12 13:36:41;;;;;;;5.50;2.17;;;;;;;;;;10325699;28;20030;-63
2022/02/12 13:41:41;;;;;;;7.07;1.95;;;;;;;;;;10305987;28;20035;-64
2022/02/12 13:46:42;;;;;;;5.10;1.92;;;;;;;;;;10323899;28;20470;-66
2022/02/12 13:52:09;;;;;;;5.97;1.87;;;;;;;;;;10332016;28;20034;-65
2022/02/12 13:57:09;;;;;;;6.47;1.95;;;;;;;;;;10334950;28;20472;-64
2022/02/12 14:02:10;;;;;;;2.50;1.73;;;;;;;;;;10334465;28;20027;-61
2022/02/12 14:07:10;;;;;;;6.75;1.98;;;;;;;;;;10333905;28;20362;-62
2022/02/12 14:12:10;;;;;;;5.40;2.07;;;;;;;;;;10333264;28;20124;-63
2022/02/12 14:17:11;;;;;;;4.37;1.57;;;;;;;;;;10331506;28;20466;-62
2022/02/12 14:22:11;;;;;;;5.20;1.77;;;;;;;;;;10332210;28;20472;-66
2022/02/12 14:27:12;;;;;;;5.27;1.73;;;;;;;;;;10333128;28;20114;-63
2022/02/12 14:32:12;;;;;;;3.40;1.85;;;;;;;;;;10332502;28;20038;-62
2022/02/12 14:37:12;;;;;;;5.07;2.37;;;;;;;;;;10322538;28;20026;-60
2022/02/12 14:42:14;;;;;;;2.80;1.50;;;;;;;;;;10351531;28;20029;-62
2022/02/12 14:47:14;;;;;;;5.47;1.60;;;;;;;;;;10311476;28;20066;-63
2022/02/12 14:52:15;;;;;;;3.15;1.25;;;;;;;;;;10294758;28;20624;-61
2022/02/12 14:57:15;;;;;;;2.63;1.93;;;;;;;;;;10329420;28;20088;-61
2022/02/12 15:02:17;;;;;;;5.57;1.83;;;;;;;;;;10315962;28;20483;-61
2022/02/12 15:07:18;;;;;;;4.68;1.85;;;;;;;;;;10315885;28;20031;-62
2022/02/12 15:12:19;;;;;;;2.75;1.30;;;;;;;;;;10311261;28;20060;-61
2022/02/12 15:17:19;;;;;;;1.67;1.30;;;;;;;;;;10324387;28;20027;-62
2022/02/12 15:22:20;;;;;;;2.85;1.30;;;;;;;;;;10302786;28;20043;-61
2022/02/12 15:27:21;;;;;;;6.40;1.52;;;;;;;;;;10320619;28;20034;-61
2022/02/12 15:32:21;;;;;;;3.03;1.25;;;;;;;;;;10300523;28;20359;-59
2022/02/12 15:37:21;;;;;;;3.80;1.42;;;;;;;;;;10302457;28;20030;-60
2022/02/12 15:42:22;;;;;;;3.70;2.17;;;;;;;;;;10319999;28;20049;-61
2022/02/12 15:47:22;;;;;;;4.13;2.00;;;;;;;;;;10307368;28;20482;-61
2022/02/12 15:52:23;;;;;;;3.42;1.40;;;;;;;;;;10305643;28;20549;-61
2022/02/12 15:57:23;;;;;;;2.13;1.40;;;;;;;;;;10323693;28;20041;-63
2022/02/12 16:02:24;;;;;;;6.90;1.33;;;;;;;;;;10307213;28;21033;-60
2022/02/12 16:07:24;;;;;;;8.95;1.55;;;;;;;;;;10314745;28;20559;-60
2022/02/12 16:12:24;;;;;;;3.83;1.40;;;;;;;;;;10301296;28;20031;-60
2022/02/12 16:17:25;;;;;;;2.70;1.30;;;;;;;;;;10304413;28;20023;-61
2022/02/12 16:22:25;;;;;;;1.90;1.47;;;;;;;;;;10294188;28;20488;-61
2022/02/12 16:27:30;;;;;;;4.00;1.40;;;;;;;;;;10319594;28;20471;-62
2022/02/12 16:32:30;;;;;;;6.90;1.30;;;;;;;;;;10311285;28;20035;-60
2022/02/12 16:37:31;;;;;;;2.33;1.40;;;;;;;;;;10300499;28;20049;-60
2022/02/12 16:42:31;;;;;;;2.42;1.20;;;;;;;;;;10306610;28;20483;-63
2022/02/12 16:47:32;;;;;;;1.60;1.43;;;;;;;;;;10321005;28;20122;-61
2022/02/12 16:52:32;;;;;;;2.15;1.40;;;;;;;;;;10308647;28;20477;-63
2022/02/12 16:57:34;;;;;;;5.17;1.60;;;;;;;;;;10293916;28;20034;-63
2022/02/12 17:02:34;;;;;;;3.50;1.40;;;;;;;;;;10320076;28;20468;-61
2022/02/12 17:07:37;;;;;;;2.72;1.50;;;;;;;;;;10323421;28;20022;-59
2022/02/12 17:12:38;;;;;;;2.58;1.30;;;;;;;;;;10323987;28;20385;-59
2022/02/12 17:17:38;;;;;;;3.00;1.65;;;;;;;;;;10316670;28;20033;-60
2022/02/12 17:22:39;;;;;;;4.20;1.50;;;;;;;;;;10314931;28;20400;-60
2022/02/12 17:27:39;;;;;;;2.73;1.57;;;;;;;;;;10314198;28;20475;-59
2022/02/12 17:32:40;;;;;;;3.53;1.38;;;;;;;;;;10314110;28;20472;-58
2022/02/12 17:37:40;;;;;;;7.10;1.75;;;;;;;;;;10316973;28;20042;-60
2022/02/12 17:42:41;;;;;;;2.10;1.58;;;;;;;;;;10328194;28;20035;-60
2022/02/12 17:47:42;;;;;;;5.55;2.05;;;;;;;;;;10331907;28;20033;-59
2022/02/12 17:52:42;;;;;;;7.70;2.00;;;;;;;;;;10325338;28;20041;-60
2022/02/12 17:57:43;;;;;;;5.93;1.80;;;;;;;;;;10328810;28;20160;-60
2022/02/12 18:02:43;;;;;;;17.35;3.10;;;;;;;;;;10324130;28;20483;-60
2022/02/12 18:07:43;;;;;;;13.80;2.70;;;;;;;;;;10333274;28;20031;-61
2022/02/12 18:12:44;;;;;;;8.30;2.90;;;;;;;;;;10331755;28;20027;-60
2022/02/12 18:17:44;;;;;;;16.87;2.40;;;;;;;;;;10310576;28;20022;-61
2022/02/12 18:22:45;;;;;;;9.57;2.57;;;;;;;;;;10328870;28;20056;-60
2022/02/12 18:27:45;;;;;;;6.00;2.70;;;;;;;;;;10332758;28;20460;-60
2022/02/12 18:32:45;;;;;;;14.50;3.15;;;;;;;;;;10331606;28;20041;-60
2022/02/12 18:37:48;;;;;;;10.73;2.63;;;;;;;;;;10330440;28;20046;-61
2022/02/12 18:42:48;;;;;;;13.13;2.65;;;;;;;;;;10330823;28;20914;-60
2022/02/12 18:47:48;;;;;;;5.40;2.50;;;;;;;;;;10322621;28;20084;-61
2022/02/12 18:52:50;;;;;;;6.83;2.57;;;;;;;;;;10324119;28;20065;-59
2022/02/12 18:57:52;;;;;;;7.80;3.05;;;;;;;;;;10324832;28;20409;-61
2022/02/12 19:02:53;;;;;;;12.88;3.00;;;;;;;;;;10313939;28;20026;-60
2022/02/12 19:07:54;;;;;;;7.50;3.35;;;;;;;;;;10314754;28;20034;-61
2022/02/12 19:12:54;;;;;;;9.45;3.42;;;;;;;;;;10322456;28;20455;-60
2022/02/12 19:17:55;;;;;;;12.43;3.73;;;;;;;;;;10327260;28;20038;-60
2022/02/12 19:23:02;;;;;;;10.50;4.40;;;;;;;;;;10319984;28;20602;-60
2022/02/12 19:28:03;;;;;;;8.35;3.92;;;;;;;;;;10320692;28;20035;-61
2022/02/12 19:33:04;;;;;;;10.55;4.80;;;;;;;;;;10325693;28;20093;-60
2022/02/12 19:38:07;;;;;;;11.17;4.23;;;;;;;;;;10328288;28;20634;-61
2022/02/12 19:43:08;;;;;;;10.70;5.35;;;;;;;;;;10317885;28;20470;-60
2022/02/12 19:48:08;;;;;;;11.50;5.03;;;;;;;;;;10314104;28;20481;-60
2022/02/12 19:53:09;;;;;;;11.97;4.77;;;;;;;;;;10319339;28;20455;-60
2022/02/12 19:58:09;;;;;;;9.05;5.05;;;;;;;;;;10325817;28;20484;-60
2022/02/12 20:03:10;;;;;;;9.40;4.65;;;;;;;;;;10319452;28;20033;-60
2022/02/12 20:08:11;;;;;;;10.27;4.80;;;;;;;;;;10315838;28;20027;-60
2022/02/12 20:13:12;;;;;;;14.85;5.07;;;;;;;;;;10325842;28;20470;-60
2022/02/12 20:18:12;;;;;;;12.55;4.57;;;;;;;;;;10323376;28;20095;-60
2022/02/12 20:23:13;;;;;;;12.73;4.70;;;;;;;;;;10325343;28;20049;-60
2022/02/12 20:28:14;;;;;;;11.38;4.88;;;;;;;;;;10323875;28;20034;-60
2022/02/12 20:33:14;;;;;;;12.30;5.28;;;;;;;;;;10321591;28;20116;-60
2022/02/12 20:38:15;;;;;;;15.55;5.30;;;;;;;;;;10314857;28;20033;-60
2022/02/12 20:43:15;;;;;;;9.15;4.72;;;;;;;;;;10326821;28;20492;-60
2022/02/12 20:48:16;;;;;;;8.57;4.82;;;;;;;;;;10327388;28;20113;-61
2022/02/12 20:53:16;;;;;;;8.88;4.72;;;;;;;;;;10322521;28;20105;-60
2022/02/12 20:58:18;;;;;;;9.00;4.82;;;;;;;;;;10320544;28;20144;-60
2022/02/12 21:03:19;;;;;;;11.20;4.60;;;;;;;;;;10320169;28;20087;-60
2022/02/12 21:08:19;;;;;;;9.15;5.05;;;;;;;;;;10315897;28;20087;-60
2022/02/12 21:13:20;;;;;;;9.60;4.67;;;;;;;;;;10325611;28;20053;-60
2022/02/12 21:18:20;;;;;;;9.23;4.90;;;;;;;;;;10320445;28;20104;-60
2022/02/12 21:23:20;;;;;;;12.60;4.80;;;;;;;;;;10326357;28;20054;-60
2022/02/12 21:28:22;;;;;;;14.50;5.47;;;;;;;;;;10319044;28;20461;-60
2022/02/12 21:33:22;;;;;;;9.95;5.28;;;;;;;;;;10311881;28;20988;-61
2022/02/12 21:38:23;;;;;;;12.23;4.70;;;;;;;;;;10291957;28;20027;-60
2022/02/12 21:43:24;;;;;;;8.02;4.72;;;;;;;;;;10285501;28;21003;-60
2022/02/12 21:48:24;;;;;;;9.23;4.90;;;;;;;;;;10293527;28;20035;-60
2022/02/12 21:53:26;;;;;;;8.48;5.00;;;;;;;;;;10268888;28;20454;-60
2022/02/12 21:58:27;;;;;;;10.07;4.53;;;;;;;;;;10271471;28;20035;-60
2022/02/12 22:03:27;;;;;;;8.55;4.82;;;;;;;;;;10289078;28;20489;-60
2022/02/12 22:08:28;;;;;;;7.00;5.03;;;;;;;;;;10292079;28;20037;-60
2022/02/12 22:13:28;;;;;;;15.33;5.17;;;;;;;;;;10297227;28;20503;-59
2022/02/12 22:18:29;;;;;;;8.50;4.95;;;;;;;;;;10298014;28;20999;-60
2022/02/12 22:23:30;;;;;;;10.68;5.05;;;;;;;;;;10290937;28;20042;-60
2022/02/12 22:28:31;;;;;;;11.50;4.55;;;;;;;;;;10289338;28;20039;-60
2022/02/12 22:33:32;;;;;;;8.57;4.78;;;;;;;;;;10290714;28;20030;-60
2022/02/12 22:38:32;;;;;;;7.93;4.82;;;;;;;;;;10296738;28;20035;-60
2022/02/12 22:43:33;;;;;;;8.82;4.93;;;;;;;;;;10298861;28;20493;-60
2022/02/12 22:48:39;;;;;;;11.85;4.68;;;;;;;;;;10312477;28;20502;-61
2022/02/12 22:53:42;;;;;;;9.70;4.70;;;;;;;;;;10291309;28;20076;-60
2022/02/12 22:58:45;;;;;;;8.73;4.85;;;;;;;;;;10300363;28;20463;-60
2022/02/12 23:03:51;;;;;;;14.35;4.80;;;;;;;;;;10304359;28;20357;-60
2022/02/12 23:08:55;;;;;;;7.30;4.97;;;;;;;;;;10299650;28;20034;-60
2022/02/12 23:13:57;;;;;;;7.85;4.72;;;;;;;;;;10303229;28;20094;-60
2022/02/12 23:19:00;;;;;;;7.78;4.80;;;;;;;;;;10312445;28;20425;-58
2022/02/12 23:24:02;;;;;;;9.30;4.35;;;;;;;;;;10311971;28;20042;-59
2022/02/12 23:29:03;;;;;;;13.93;3.97;;;;;;;;;;10317087;28;20462;-59
2022/02/12 23:34:04;;;;;;;11.25;4.70;;;;;;;;;;10307526;28;20429;-60
2022/02/12 23:39:04;;;;;;;15.00;5.15;;;;;;;;;;10301700;28;20038;-59
2022/02/12 23:44:05;;;;;;;13.05;4.93;;;;;;;;;;10305745;28;20053;-59
2022/02/12 23:49:06;;;;;;;9.27;4.47;;;;;;;;;;10322144;28;20386;-60
2022/02/12 23:54:06;;;;;;;7.63;4.37;;;;;;;;;;10323430;28;20107;-59
2022/02/12 23:59:07;;;;;;;12.02;4.30;;;;;;;;;;10302508;28;20481;-59
